Thursday, September 20, 2018, 12:38 PM GMT
Back to Local

CWTN, Cap Tourmente

Location: , , Canada Lat: 47.067
Local Time: 12:38 PM GMT (12:38 GMT) Lon: -70.8
Time Zone: GMT Elev: 19 ft

Show me the last for .
Show Coded

Time T Td Feel RH Dir Speed Gust Alt SLP Vis Weather Sky Remarks
2018-09-20 12:00 53 49 - 83 20° 2 - - 30.26 0 None
2018-09-20 11:00 50 48 - 94 330° 1 - - 30.24 0 None
2018-09-20 10:00 50 48 49 92 50° 3 - - 30.23 0 None
2018-09-20 09:00 50 49 - 96 270° 1 - - 30.22 0 None
2018-09-20 08:00 49 48 48 96 80° 5 - - 30.22 0 None
2018-09-20 07:00 50 48 - 93 300° 1 - - 30.23 0 None
2018-09-20 06:00 50 48 - 91 90° 2 - - 30.21 0 None
2018-09-20 05:00 50 48 - 92 90° 2 - - 30.22 0 None
2018-09-20 04:00 50 46 - 83 130° 5 - - 30.21 0 None
2018-09-20 03:00 50 47 - 91 130° 2 - - 30.21 0 None
2018-09-20 02:00 50 46 49 84 80° 3 - - 30.21 0 None
2018-09-20 01:00 50 46 - 87 210° 1 - - 30.21 0 None
2018-09-20 00:00 50 46 49 86 140° 3 - - 30.19 0 None
2018-09-19 23:00 50 46 43 87 90° 12 23 - 30.16 0 Peak wind: 23 mph (20 kts) from 80° at 20 min
2018-09-19 22:00 50 46 - 85 90° 10 21 - 30.15 0 Peak wind: 20 mph (18 kts) from 100° at 59 min
2018-09-19 21:00 52 46 - 77 80° 12 17 - 30.13 0 Peak wind: 27 mph (24 kts) from 80° at 14 min
2018-09-19 20:00 53 48 - 82 80° 15 23 - 30.11 0 Peak wind: 26 mph (23 kts) from 80° at 19 min
2018-09-19 19:00 54 49 - 83 90° 16 24 - 30.10 0 Peak wind: 25 mph (22 kts) from 70° at 17 min
2018-09-19 18:00 53 48 - 83 80° 15 23 - 30.10 0 Peak wind: 23 mph (20 kts) from 80° at 51 min
2018-09-19 17:00 54 49 - 81 90° 12 20 - 30.11 0 Peak wind: 19 mph (17 kts) from 80° at 53 min
2018-09-19 16:00 53 48 - 83 80° 8 - - 30.10 0 None
2018-09-19 15:00 54 48 - 81 90° 10 - - 30.09 0 None
2018-09-19 14:00 53 48 - 83 50° 7 - - 30.08 0 None
2018-09-19 13:00 52 48 - 85 60° 5 - - 30.06 0 None

Support USWX by starting your Amazon purchase here.